Time;durP1;ratioP1;P1;durP2;ratioP2;P2;SDS_P1;SDS_P2;PMS_P1;PMS_P2;Temp;Humidity;BMP_temperature;BMP_pressure;BME280_temperature;BME280_humidity;BME280_pressure;Samples;Min_cycle;Max_cycle;Signal;HPM_P1;HPM_P2
2021/10/02 00:01:48;;;;;;;16.73;7.43;;;;;;;21.20;65.92;100744.75;5097548;28;20122;-62
2021/10/02 00:37:31;;;;;;;16.88;7.80;;;;;;;21.17;66.01;100714.19;5108563;28;20071;-64
2021/10/02 00:45:31;;;;;;;21.08;9.07;;;;;;;21.81;64.55;100689.28;5114286;27;20126;-64
2021/10/02 00:47:58;;;;;;;19.35;9.27;;;;;;;21.46;64.80;100662.09;5106326;28;20127;-62
2021/10/02 00:50:25;;;;;;;14.70;6.85;;;;;;;21.45;64.98;100660.44;5104315;28;20132;-64
2021/10/02 00:52:52;;;;;;;14.57;7.63;;;;;;;21.64;65.10;100688.34;5103755;28;20130;-64
2021/10/02 00:55:19;;;;;;;19.67;8.18;;;;;;;21.65;64.91;100695.66;5105267;28;20455;-64
2021/10/02 00:57:46;;;;;;;16.40;8.52;;;;;;;21.58;64.88;100697.44;5097689;28;20091;-64
2021/10/02 01:00:13;;;;;;;22.73;9.27;;;;;;;21.51;65.24;100698.84;5108876;28;20139;-64
2021/10/02 01:03:05;;;;;;;18.17;8.30;;;;;;;21.42;65.05;100686.72;5109873;28;20138;-64
2021/10/02 01:05:40;;;;;;;13.95;8.07;;;;;;;21.36;65.42;100690.97;5103972;28;20127;-62
2021/10/02 01:08:10;;;;;;;14.07;7.35;;;;;;;21.32;65.57;100689.97;5103855;28;20044;-62
2021/10/02 01:10:44;;;;;;;17.48;7.95;;;;;;;21.29;65.66;100671.63;5097543;28;20082;-64
2021/10/02 01:13:11;;;;;;;15.75;8.27;;;;;;;21.31;65.54;100682.66;5097635;28;20054;-62
2021/10/02 01:16:17;;;;;;;17.15;8.02;;;;;;;21.04;65.80;100659.34;5107506;28;20479;-62
2021/10/02 01:18:50;;;;;;;19.35;7.35;;;;;;;21.10;66.02;100659.16;5105447;27;20118;-63
2021/10/02 01:21:48;;;;;;;17.77;6.95;;;;;;;21.22;65.69;100653.50;5100790;28;20139;-63
2021/10/02 01:24:54;;;;;;;18.38;7.30;;;;;;;21.12;65.87;100668.13;5096007;28;20512;-65
2021/10/02 01:27:43;;;;;;;18.45;8.30;;;;;;;21.05;65.79;100663.00;5073600;28;20072;-64
2021/10/02 01:30:18;;;;;;;15.60;6.93;;;;;;;21.06;65.88;100659.00;5094399;28;20116;-64
2021/10/02 01:33:04;;;;;;;15.25;6.32;;;;;;;20.96;66.23;100648.91;5109819;28;20128;-64
2021/10/02 01:35:41;;;;;;;14.50;5.43;;;;;;;20.92;66.51;100639.44;5109227;27;20127;-62
2021/10/02 01:49:18;;;;;;;20.48;8.40;;;;;;;20.62;66.95;100630.19;5103441;28;20794;-67
2021/10/02 01:51:47;;;;;;;20.15;8.25;;;;;;;20.68;67.07;100633.63;5100580;28;20044;-66
2021/10/02 01:54:15;;;;;;;20.27;7.75;;;;;;;20.59;67.06;100628.88;5093092;28;20146;-60
2021/10/02 01:56:43;;;;;;;12.63;5.70;;;;;;;20.52;67.68;100602.25;5106138;28;20046;-61
2021/10/02 01:59:12;;;;;;;14.52;5.57;;;;;;;20.93;67.30;100609.88;5079546;28;20075;-59
2021/10/02 02:01:43;;;;;;;15.80;6.40;;;;;;;20.92;66.84;100599.69;5103338;28;20127;-63
2021/10/02 02:04:13;;;;;;;13.48;6.20;;;;;;;20.92;66.98;100598.84;5101707;28;20679;-63
2021/10/02 02:06:43;;;;;;;13.20;6.22;;;;;;;20.86;67.18;100592.56;5094892;28;20128;-63
2021/10/02 02:09:12;;;;;;;14.60;6.80;;;;;;;20.75;67.49;100591.34;5094006;27;20072;-65
2021/10/02 02:11:40;;;;;;;17.65;6.35;;;;;;;20.53;67.87;100575.53;5106054;28;20074;-64
2021/10/02 02:14:11;;;;;;;12.55;6.03;;;;;;;20.43;68.12;100573.91;5108153;28;20146;-74
2021/10/02 02:16:40;;;;;;;17.35;7.15;;;;;;;20.49;68.21;100581.03;5092476;28;20043;-69
2021/10/02 02:19:08;;;;;;;14.90;6.78;;;;;;;20.41;68.33;100579.09;5109681;28;20130;-67
2021/10/02 02:21:35;;;;;;;14.80;7.20;;;;;;;20.30;68.19;100558.81;5102505;28;20131;-64
2021/10/02 02:24:02;;;;;;;11.63;5.65;;;;;;;20.67;68.27;100583.75;5095617;27;20134;-59
2021/10/02 02:26:29;;;;;;;12.50;5.32;;;;;;;20.91;67.75;100565.97;5101834;28;20134;-67
2021/10/02 02:28:58;;;;;;;11.82;5.95;;;;;;;21.24;67.19;100568.78;5104791;28;20171;-68
2021/10/02 02:31:25;;;;;;;11.98;5.53;;;;;;;21.08;67.04;100545.06;5094822;28;20063;-64
2021/10/02 02:33:53;;;;;;;11.73;5.57;;;;;;;21.10;67.15;100554.09;5102320;28;20048;-61
2021/10/02 02:36:22;;;;;;;14.18;5.65;;;;;;;20.94;67.21;100548.25;5092568;28;20131;-66
2021/10/02 02:38:48;;;;;;;15.82;6.65;;;;;;;20.72;67.50;100536.13;5101355;27;20035;-71
2021/10/02 02:41:15;;;;;;;11.50;6.35;;;;;;;20.73;68.10;100546.28;5102617;28;20242;-65
2021/10/02 02:43:42;;;;;;;15.57;6.93;;;;;;;20.90;67.75;100547.28;5105854;28;20134;-67
2021/10/02 02:46:17;;;;;;;13.20;4.88;;;;;;;20.97;67.70;100528.50;5105252;28;20069;-67
2021/10/02 02:48:58;;;;;;;8.98;4.60;;;;;;;21.23;67.37;100527.34;5099419;28;20043;-66
2021/10/02 02:51:32;;;;;;;7.97;4.47;;;;;;;21.40;67.00;100532.00;5097687;28;20142;-71
2021/10/02 02:54:11;;;;;;;10.05;5.43;;;;;;;21.36;66.61;100536.75;5093366;28;20074;-69
2021/10/02 02:56:51;;;;;;;10.75;5.05;;;;;;;21.22;67.11;100526.50;5101587;28;20096;-69
2021/10/02 02:59:24;;;;;;;12.93;5.47;;;;;;;21.23;67.01;100533.88;5100265;28;20130;-69
2021/10/02 03:01:54;;;;;;;9.07;4.90;;;;;;;21.09;66.97;100518.34;5104035;28;20659;-69
2021/10/02 03:04:32;;;;;;;14.82;6.07;;;;;;;21.16;66.75;100544.13;5091911;28;20120;-68
2021/10/02 03:07:01;;;;;;;11.82;5.35;;;;;;;21.22;66.59;100537.06;5090663;28;20051;-69
2021/10/02 03:09:36;;;;;;;12.43;5.72;;;;;;;21.20;66.75;100533.75;5091366;28;20068;-69
2021/10/02 03:12:03;;;;;;;9.68;5.53;;;;;;;21.36;66.49;100529.03;5099537;28;20067;-70
2021/10/02 03:14:32;;;;;;;13.40;5.28;;;;;;;21.32;66.24;100507.34;5105713;28;20066;-71
2021/10/02 03:17:00;;;;;;;12.77;5.82;;;;;;;21.34;66.00;100505.00;5098954;28;20067;-71
2021/10/02 03:19:29;;;;;;;11.05;5.43;;;;;;;21.15;66.18;100497.06;5111114;28;20109;-73
2021/10/02 03:21:56;;;;;;;9.57;4.97;;;;;;;21.09;66.50;100504.13;5096526;28;20079;-72
2021/10/02 03:24:24;;;;;;;11.73;5.63;;;;;;;21.16;66.41;100505.22;5092865;28;20083;-74
2021/10/02 03:26:53;;;;;;;10.02;4.70;;;;;;;21.17;66.69;100500.38;5099601;28;20046;-74
2021/10/02 03:29:22;;;;;;;11.63;4.63;;;;;;;21.19;66.53;100492.31;5106130;28;20130;-74
2021/10/02 03:31:49;;;;;;;11.07;5.13;;;;;;;21.20;66.15;100494.81;5097023;28;20042;-69
2021/10/02 03:34:17;;;;;;;11.63;5.00;;;;;;;21.21;66.12;100490.78;5100413;28;20043;-68
2021/10/02 03:36:45;;;;;;;11.00;5.85;;;;;;;21.21;66.47;100498.47;5101218;28;20125;-68
2021/10/02 03:39:12;;;;;;;8.90;5.18;;;;;;;21.26;66.02;100492.56;5101052;28;20043;-68
2021/10/02 03:41:39;;;;;;;11.88;5.32;;;;;;;21.13;65.74;100493.72;5094587;28;20094;-66
2021/10/02 03:44:06;;;;;;;11.57;5.82;;;;;;;21.10;65.92;100509.47;5098703;28;20065;-64
2021/10/02 03:46:33;;;;;;;13.05;5.80;;;;;;;20.89;66.29;100495.38;5097659;28;20083;-67
2021/10/02 03:49:02;;;;;;;15.60;7.28;;;;;;;20.82;66.41;100495.13;5100456;28;20380;-67
2021/10/02 03:51:29;;;;;;;14.40;5.95;;;;;;;20.90;66.59;100502.69;5083420;28;20127;-68
2021/10/02 03:53:56;;;;;;;9.82;5.78;;;;;;;20.91;66.45;100497.84;5107672;28;20063;-67
2021/10/02 03:56:25;;;;;;;16.92;6.43;;;;;;;20.91;66.37;100498.66;5098799;28;20062;-66
2021/10/02 03:58:52;;;;;;;10.57;5.70;;;;;;;20.90;66.40;100496.19;5099772;28;20126;-65
2021/10/02 04:01:19;;;;;;;11.48;5.80;;;;;;;20.80;66.58;100480.44;5099249;28;20048;-73
2021/10/02 04:03:46;;;;;;;10.77;5.72;;;;;;;20.87;66.70;100491.22;5082759;28;20047;-72
2021/10/02 04:06:13;;;;;;;15.48;6.32;;;;;;;20.73;66.93;100472.50;5096546;28;20563;-73
2021/10/02 04:08:40;;;;;;;7.60;4.13;;;;;;;20.85;66.90;100473.69;5112844;28;20067;-74
2021/10/02 04:11:07;;;;;;;9.18;4.50;;;;;;;20.72;66.93;100458.69;5101173;28;20075;-68
2021/10/02 04:13:34;;;;;;;12.68;5.85;;;;;;;20.73;66.89;100486.69;5105674;28;20067;-67
2021/10/02 04:16:01;;;;;;;13.95;6.07;;;;;;;20.59;66.95;100469.16;5111604;28;22389;-68
2021/10/02 04:18:28;;;;;;;12.02;5.30;;;;;;;20.69;67.10;100484.91;5107887;28;20129;-64
2021/10/02 04:20:55;;;;;;;12.05;4.85;;;;;;;20.61;67.27;100486.66;5100067;28;20071;-64
2021/10/02 04:23:22;;;;;;;11.85;5.22;;;;;;;20.52;67.57;100498.09;5093480;28;20054;-64
2021/10/02 04:25:49;;;;;;;14.15;5.50;;;;;;;20.44;67.74;100490.47;5094730;28;20139;-63
2021/10/02 04:28:16;;;;;;;13.05;5.35;;;;;;;20.46;67.66;100499.47;5117931;27;20055;-63
2021/10/02 04:30:43;;;;;;;13.98;5.05;;;;;;;20.40;68.01;100466.81;5109645;27;20185;-63
2021/10/02 04:33:10;;;;;;;16.55;6.13;;;;;;;20.49;67.98;100484.59;5109431;28;20040;-67
2021/10/02 04:35:37;;;;;;;13.80;5.40;;;;;;;20.53;68.04;100479.88;5111193;27;20059;-67
2021/10/02 04:38:04;;;;;;;12.65;5.63;;;;;;;20.02;67.92;100401.81;5102152;28;20126;-66
2021/10/02 04:40:31;;;;;;;14.15;5.03;;;;;;;20.51;67.78;100484.25;5100313;28;20086;-67
2021/10/02 04:42:57;;;;;;;15.05;5.50;;;;;;;20.12;68.01;100435.41;5102504;28;20126;-67
2021/10/02 04:45:24;;;;;;;10.52;4.88;;;;;;;20.43;68.27;100496.50;5111683;28;20126;-67
2021/10/02 04:47:51;;;;;;;11.07;5.50;;;;;;;20.42;68.22;100489.16;5111137;28;20154;-68
2021/10/02 04:50:18;;;;;;;13.15;4.85;;;;;;;20.38;68.79;100480.53;5104290;28;20135;-68
2021/10/02 04:52:45;;;;;;;12.40;5.47;;;;;;;20.31;68.91;100485.94;5105256;28;20126;-68
2021/10/02 04:55:12;;;;;;;17.98;6.25;;;;;;;20.16;69.10;100478.06;5074664;28;20511;-70
2021/10/02 04:57:39;;;;;;;16.15;6.22;;;;;;;20.08;68.99;100496.81;5097662;28;20102;-68
2021/10/02 05:00:06;;;;;;;15.88;5.45;;;;;;;19.95;69.35;100495.91;5100518;28;20127;-66
2021/10/02 05:02:33;;;;;;;11.93;4.15;;;;;;;19.85;69.70;100502.81;5097893;28;20043;-67
2021/10/02 05:05:00;;;;;;;8.70;4.20;;;;;;;19.64;69.88;100480.13;5106806;28;20051;-67
2021/10/02 05:07:27;;;;;;;10.80;4.00;;;;;;;19.68;69.90;100487.94;5108052;27;20070;-65
2021/10/02 05:09:54;;;;;;;8.65;4.47;;;;;;;19.61;70.08;100485.63;5100138;28;20155;-70
2021/10/02 05:12:21;;;;;;;9.38;4.78;;;;;;;19.64;70.26;100499.13;5113468;27;20213;-69
2021/10/02 05:14:48;;;;;;;14.45;4.70;;;;;;;19.57;70.35;100496.81;5109532;27;20078;-72
2021/10/02 05:17:15;;;;;;;11.20;4.63;;;;;;;19.67;70.46;100497.63;5105610;28;20071;-73
2021/10/02 05:19:42;;;;;;;10.23;4.55;;;;;;;19.55;70.68;100490.63;5100619;28;20059;-70
2021/10/02 05:22:13;;;;;;;12.77;5.47;;;;;;;19.50;70.97;100495.69;5099954;28;20120;-70
2021/10/02 05:24:40;;;;;;;9.60;5.32;;;;;;;19.41;70.91;100481.56;5078272;28;20043;-64
2021/10/02 05:27:09;;;;;;;13.18;5.80;;;;;;;19.46;71.22;100498.38;5100242;28;20123;-63
2021/10/02 05:29:38;;;;;;;12.77;6.13;;;;;;;19.56;71.01;100492.31;5106708;28;20575;-65
2021/10/02 05:32:06;;;;;;;12.70;5.93;;;;;;;19.31;71.12;100470.63;5094616;28;20132;-65
2021/10/02 05:34:33;;;;;;;13.65;5.25;;;;;;;19.42;71.17;100492.56;5098837;28;20127;-68
2021/10/02 05:37:00;;;;;;;16.52;6.40;;;;;;;19.48;70.95;100481.84;5108444;28;20463;-68
2021/10/02 05:39:27;;;;;;;12.93;4.65;;;;;;;19.55;71.32;100467.97;5106627;27;20585;-66
2021/10/02 05:41:55;;;;;;;8.05;4.28;;;;;;;19.63;71.17;100472.81;5113140;28;20467;-64
2021/10/02 05:44:22;;;;;;;8.30;3.85;;;;;;;19.80;70.91;100465.38;5099791;27;20131;-62
2021/10/02 05:46:49;;;;;;;9.95;4.18;;;;;;;20.08;70.77;100472.13;5096930;28;20451;-66
2021/10/02 05:49:15;;;;;;;6.45;3.30;;;;;;;20.16;69.84;100473.22;5109014;28;20130;-62
2021/10/02 05:51:42;;;;;;;8.00;3.17;;;;;;;20.13;70.26;100463.38;5106338;28;20131;-61
2021/10/02 05:54:09;;;;;;;8.35;3.63;;;;;;;20.42;69.85;100461.63;5112039;28;20131;-66
2021/10/02 05:56:37;;;;;;;12.63;3.45;;;;;;;20.46;69.62;100442.72;5109983;28;20131;-63
2021/10/02 05:59:04;;;;;;;6.40;3.67;;;;;;;20.52;69.38;100483.09;5099181;28;20078;-65
2021/10/02 06:01:31;;;;;;;7.68;3.33;;;;;;;20.14;69.29;100421.72;5097177;28;20518;-62
2021/10/02 06:03:58;;;;;;;9.50;3.78;;;;;;;20.28;69.24;100475.28;5107142;28;20083;-63
2021/10/02 06:06:25;;;;;;;7.85;3.53;;;;;;;20.13;69.66;100479.56;5094259;27;20040;-62
2021/10/02 06:08:52;;;;;;;7.95;3.55;;;;;;;20.06;69.85;100468.78;5094458;28;20059;-62
2021/10/02 06:11:19;;;;;;;11.93;4.45;;;;;;;20.08;69.73;100482.63;5107697;28;20134;-63
2021/10/02 06:13:47;;;;;;;10.30;4.20;;;;;;;19.85;70.01;100474.47;5104600;28;20131;-63
2021/10/02 06:16:16;;;;;;;9.88;5.18;;;;;;;19.75;70.04;100474.88;5104428;28;20789;-61
2021/10/02 06:18:43;;;;;;;9.02;4.40;;;;;;;19.69;70.56;100486.75;5093877;28;20048;-65
2021/10/02 06:21:12;;;;;;;8.60;3.95;;;;;;;19.55;70.87;100486.97;5092871;28;20072;-69
2021/10/02 06:23:39;;;;;;;6.40;2.80;;;;;;;19.44;71.10;100469.56;5106989;28;20075;-68
2021/10/02 06:26:06;;;;;;;9.52;3.78;;;;;;;19.46;71.35;100450.22;5106060;28;20122;-64
2021/10/02 06:28:33;;;;;;;6.80;3.33;;;;;;;19.64;71.04;100451.78;5103485;28;20478;-64
2021/10/02 06:31:00;;;;;;;6.05;3.03;;;;;;;19.68;71.05;100446.25;5093773;28;20052;-65
2021/10/02 06:33:28;;;;;;;6.00;3.05;;;;;;;19.71;71.28;100471.06;5102431;28;20070;-65
2021/10/02 06:35:55;;;;;;;6.95;4.03;;;;;;;19.80;70.89;100480.34;5090293;28;20132;-63
2021/10/02 06:38:22;;;;;;;7.53;3.55;;;;;;;19.78;70.74;100491.19;5095431;28;20132;-65
2021/10/02 06:40:50;;;;;;;9.55;3.92;;;;;;;19.60;70.75;100484.78;5096947;28;20075;-62
2021/10/02 06:43:17;;;;;;;7.22;2.80;;;;;;;19.47;71.39;100491.53;5105846;28;20510;-61
2021/10/02 06:45:44;;;;;;;6.18;2.85;;;;;;;19.29;71.92;100484.31;5103395;28;20058;-61
2021/10/02 06:48:11;;;;;;;8.65;2.50;;;;;;;19.36;72.62;100484.59;5093061;27;20142;-61
2021/10/02 06:50:37;;;;;;;11.95;3.05;;;;;;;19.38;72.21;100479.41;5095163;28;20076;-60
2021/10/02 06:53:05;;;;;;;3.67;2.25;;;;;;;19.25;72.47;100477.66;5107585;28;20062;-60
2021/10/02 06:55:31;;;;;;;4.30;2.00;;;;;;;19.38;72.58;100476.59;5102056;28;20477;-61
2021/10/02 06:57:58;;;;;;;4.78;2.25;;;;;;;19.37;72.65;100457.94;5092347;28;20110;-60
2021/10/02 07:00:25;;;;;;;2.60;1.85;;;;;;;19.56;72.45;100449.84;5097641;28;20040;-60
2021/10/02 07:02:52;;;;;;;6.55;2.47;;;;;;;19.60;72.30;100484.78;5092649;28;20039;-60
2021/10/02 07:05:19;;;;;;;4.30;2.10;;;;;;;19.59;72.24;100477.47;5095529;28;20048;-61
2021/10/02 07:07:46;;;;;;;3.65;1.70;;;;;;;19.73;72.77;100477.25;5095741;28;20073;-60
2021/10/02 07:10:13;;;;;;;5.13;2.20;;;;;;;19.91;72.49;100477.94;5094714;28;20563;-60
2021/10/02 07:12:40;;;;;;;4.20;2.38;;;;;;;19.61;72.13;100435.44;5101092;28;20079;-60
2021/10/02 07:15:07;;;;;;;7.03;2.55;;;;;;;19.75;72.85;100476.88;5109152;28;20063;-60
2021/10/02 07:17:34;;;;;;;6.05;3.55;;;;;;;19.81;72.83;100484.00;5095547;28;20067;-60
2021/10/02 07:20:02;;;;;;;5.90;2.55;;;;;;;19.89;72.65;100483.94;5093991;28;20135;-60
2021/10/02 07:22:34;;;;;;;6.32;3.30;;;;;;;19.79;72.64;100466.50;5092407;28;20134;-60
2021/10/02 07:25:04;;;;;;;3.92;2.15;;;;;;;19.65;73.03;100475.28;5094434;28;20475;-60
2021/10/02 07:27:31;;;;;;;5.20;2.97;;;;;;;19.69;73.12;100455.59;5108824;28;20126;-59
2021/10/02 07:29:58;;;;;;;5.57;2.53;;;;;;;20.01;72.84;100471.03;5112056;28;20078;-60
2021/10/02 07:32:29;;;;;;;4.70;2.65;;;;;;;20.00;72.57;100453.19;5096433;28;20055;-60
2021/10/02 07:34:56;;;;;;;5.53;2.38;;;;;;;20.23;72.36;100466.97;5094703;28;20151;-60
2021/10/02 07:37:23;;;;;;;6.22;2.88;;;;;;;20.30;72.28;100462.41;5111083;28;20040;-59
2021/10/02 07:39:55;;;;;;;6.07;3.30;;;;;;;20.23;72.18;100466.97;5094863;28;20055;-61
2021/10/02 07:42:24;;;;;;;8.80;3.53;;;;;;;20.05;72.09;100454.97;5106389;27;20071;-61
2021/10/02 07:45:01;;;;;;;7.35;4.10;;;;;;;19.85;72.57;100470.81;5089596;28;20067;-63
2021/10/02 07:47:29;;;;;;;10.55;5.40;;;;;;;19.77;72.74;100471.72;5112227;28;20510;-63
2021/10/02 07:49:59;;;;;;;9.18;4.72;;;;;;;19.78;72.82;100476.19;5108785;27;20602;-62
2021/10/02 07:52:27;;;;;;;9.25;5.53;;;;;;;19.72;73.34;100469.06;5119974;27;20055;-62
2021/10/02 07:54:54;;;;;;;14.38;7.63;;;;;;;19.75;73.52;100474.06;5108265;28;20126;-62
2021/10/02 07:57:21;;;;;;;9.55;6.00;;;;;;;19.43;73.53;100436.75;5107360;28;20135;-61
2021/10/02 07:59:48;;;;;;;11.43;6.80;;;;;;;19.72;73.34;100475.56;5108885;28;20087;-62
2021/10/02 08:02:20;;;;;;;15.45;8.65;;;;;;;19.58;73.42;100475.78;5095235;28;20102;-62
2021/10/02 08:04:48;;;;;;;22.15;10.55;;;;;;;19.31;74.14;100451.63;5094845;28;20044;-62
2021/10/02 08:07:15;;;;;;;21.98;12.35;;;;;;;19.37;74.58;100469.28;5102918;27;20132;-62
2021/10/02 08:09:42;;;;;;;14.63;8.63;;;;;;;19.46;74.83;100463.56;5096154;28;20082;-62
2021/10/02 08:12:11;;;;;;;23.00;10.55;;;;;;;19.86;74.22;100470.47;5083976;28;20127;-63
2021/10/02 08:14:38;;;;;;;19.57;9.87;;;;;;;20.04;74.00;100476.84;5110755;28;20047;-65
2021/10/02 08:17:08;;;;;;;16.88;9.18;;;;;;;20.18;73.75;100472.88;5113921;28;20807;-63
2021/10/02 08:19:36;;;;;;;12.85;7.43;;;;;;;20.32;73.19;100447.88;5088820;28;20085;-63
2021/10/02 08:22:04;;;;;;;14.30;7.10;;;;;;;20.48;72.83;100459.41;5109667;28;20055;-63
2021/10/02 08:24:32;;;;;;;12.18;7.35;;;;;;;20.54;72.33;100456.00;5104098;28;20078;-63
2021/10/02 08:26:59;;;;;;;13.75;7.78;;;;;;;20.24;72.85;100446.81;5105491;28;20044;-64
2021/10/02 08:29:26;;;;;;;15.68;5.60;;;;;;;20.05;73.02;100452.97;5104171;27;20067;-63
2021/10/02 08:31:53;;;;;;;12.88;7.22;;;;;;;19.88;73.76;100441.78;5099403;28;20127;-65
2021/10/02 08:34:24;;;;;;;7.65;4.57;;;;;;;20.05;73.38;100444.47;5100143;28;20085;-63
2021/10/02 08:36:51;;;;;;;6.28;4.40;;;;;;;20.33;73.10;100463.72;5115527;27;20118;-63
2021/10/02 08:39:18;;;;;;;7.65;4.15;;;;;;;20.84;72.42;100455.84;5110580;28;20051;-63
2021/10/02 08:41:45;;;;;;;7.18;4.35;;;;;;;21.38;71.47;100432.13;5095417;28;20079;-63
2021/10/02 08:44:20;;;;;;;6.93;3.88;;;;;;;21.79;70.85;100453.72;5098104;28;20149;-62
2021/10/02 08:46:49;;;;;;;8.15;4.45;;;;;;;21.83;69.96;100453.81;5107398;28;20576;-62
2021/10/02 08:49:31;;;;;;;10.93;5.40;;;;;;;21.82;69.91;100461.53;5110134;28;20097;-62
2021/10/02 08:52:00;;;;;;;10.05;5.72;;;;;;;21.74;69.86;100451.09;5095893;28;20136;-62
2021/10/02 08:54:28;;;;;;;9.50;5.90;;;;;;;21.78;69.75;100452.06;5096869;28;20095;-61
2021/10/02 08:56:56;;;;;;;7.25;5.20;;;;;;;22.05;69.35;100449.59;5121833;27;20088;-61
2021/10/02 08:59:22;;;;;;;9.82;5.07;;;;;;;22.60;68.61;100459.38;5083864;28;20472;-60
2021/10/02 09:01:50;;;;;;;6.35;4.45;;;;;;;22.76;68.41;100445.13;5104882;28;20403;-61
2021/10/02 09:04:17;;;;;;;10.65;6.35;;;;;;;23.11;67.36;100450.94;5111291;28;20130;-64
2021/10/02 09:06:45;;;;;;;8.95;4.80;;;;;;;23.66;66.36;100457.59;5107611;28;20073;-60
2021/10/02 09:09:12;;;;;;;5.03;3.38;;;;;;;24.05;65.08;100454.81;5104227;28;20078;-62
2021/10/02 09:11:39;;;;;;;7.18;3.95;;;;;;;24.29;64.29;100448.81;5110705;28;20122;-61
2021/10/02 09:14:08;;;;;;;6.97;3.85;;;;;;;24.40;63.89;100437.66;5106048;28;20078;-62
2021/10/02 09:16:35;;;;;;;7.32;4.13;;;;;;;24.47;63.59;100448.38;5094938;28;20040;-61
2021/10/02 09:19:02;;;;;;;7.88;4.25;;;;;;;24.31;62.67;100443.56;5119273;27;20126;-61
2021/10/02 09:21:30;;;;;;;7.60;3.88;;;;;;;24.07;62.92;100447.56;5099463;27;20090;-61
2021/10/02 09:23:57;;;;;;;7.63;3.50;;;;;;;23.93;63.34;100449.25;5094621;28;20521;-61
2021/10/02 09:26:42;;;;;;;6.00;3.45;;;;;;;23.53;63.48;100438.97;5094383;28;20602;-62
2021/10/02 09:29:09;;;;;;;5.18;2.60;;;;;;;23.32;63.75;100445.81;5104180;28;20134;-62
2021/10/02 09:31:36;;;;;;;3.80;2.25;;;;;;;22.85;63.92;100395.38;5110042;28;20047;-61
2021/10/02 09:34:03;;;;;;;6.05;3.33;;;;;;;22.97;64.33;100436.34;5106465;28;20044;-62
2021/10/02 09:36:30;;;;;;;7.93;3.10;;;;;;;22.93;64.12;100434.25;5103021;27;20082;-61
2021/10/02 09:38:56;;;;;;;4.65;1.70;;;;;;;22.85;63.97;100426.69;5105489;27;20123;-61
2021/10/02 09:41:29;;;;;;;3.10;1.20;;;;;;;22.43;64.09;100401.59;5096267;28;20039;-61
2021/10/02 09:43:57;;;;;;;3.60;2.05;;;;;;;22.28;64.87;100408.06;5098571;27;20063;-61
2021/10/02 09:46:35;;;;;;;3.35;1.40;;;;;;;21.91;65.42;100399.66;5103918;28;20135;-60
2021/10/02 09:49:02;;;;;;;1.92;1.17;;;;;;;21.98;66.07;100405.56;5097289;28;20384;-61
2021/10/02 09:51:43;;;;;;;2.70;0.80;;;;;;;22.10;65.32;100401.84;5100936;28;20054;-61
2021/10/02 09:54:36;;;;;;;3.10;1.27;;;;;;;22.10;65.54;100406.69;5096661;28;20051;-61
2021/10/02 09:57:09;;;;;;;1.60;1.10;;;;;;;22.06;65.50;100406.59;5100568;28;20067;-61
2021/10/02 09:59:36;;;;;;;2.33;1.45;;;;;;;21.88;65.58;100389.03;5099764;28;20130;-61
2021/10/02 10:02:17;;;;;;;2.95;1.70;;;;;;;21.76;65.93;100391.91;5106433;27;20043;-60
2021/10/02 10:04:52;;;;;;;1.95;1.13;;;;;;;21.81;66.25;100388.78;5107140;28;20079;-61
2021/10/02 10:07:20;;;;;;;2.13;1.15;;;;;;;21.58;65.60;100339.41;5087235;28;20466;-61
2021/10/02 10:10:09;;;;;;;4.63;1.55;;;;;;;21.79;65.93;100379.81;5103187;28;20048;-61
2021/10/02 10:12:38;;;;;;;3.53;1.90;;;;;;;21.49;66.62;100351.72;5081225;28;20071;-60
2021/10/02 10:15:24;;;;;;;2.58;1.40;;;;;;;21.55;67.25;100375.03;5097542;28;20079;-60
2021/10/02 10:17:51;;;;;;;4.35;1.70;;;;;;;21.19;67.71;100362.50;5103095;28;20155;-61
2021/10/02 10:20:19;;;;;;;3.15;1.40;;;;;;;21.00;68.07;100382.19;5098486;28;20123;-61
2021/10/02 10:22:56;;;;;;;4.50;1.60;;;;;;;20.63;69.01;100370.00;5105355;28;20123;-62
2021/10/02 10:25:23;;;;;;;4.13;1.70;;;;;;;20.42;69.66;100370.88;5109913;27;20467;-62
2021/10/02 10:27:50;;;;;;;4.68;2.25;;;;;;;20.20;70.19;100359.94;5085892;28;20054;-61
2021/10/02 10:30:23;;;;;;;3.10;1.67;;;;;;;20.24;70.47;100366.56;5098884;28;20127;-61
2021/10/02 10:32:58;;;;;;;2.40;1.77;;;;;;;20.22;70.77;100363.25;5102395;28;20047;-61
2021/10/02 10:35:27;;;;;;;8.32;2.30;;;;;;;20.24;71.01;100355.22;5103149;28;20138;-61
2021/10/02 10:37:54;;;;;;;3.83;1.70;;;;;;;20.39;71.23;100367.91;5100592;28;20039;-61
2021/10/02 10:40:21;;;;;;;2.78;1.50;;;;;;;20.17;71.27;100347.31;5105551;28;20074;-62
2021/10/02 10:42:48;;;;;;;4.80;1.50;;;;;;;19.98;71.99;100336.50;5110555;28;20138;-62
2021/10/02 10:45:15;;;;;;;4.28;2.05;;;;;;;20.25;72.06;100368.22;5099557;28;20050;-61
2021/10/02 10:47:44;;;;;;;7.40;2.33;;;;;;;20.28;72.40;100356.19;5095721;28;20566;-62
2021/10/02 10:50:11;;;;;;;3.30;1.52;;;;;;;20.48;72.49;100355.28;5093726;28;20134;-62
2021/10/02 10:52:40;;;;;;;2.67;1.65;;;;;;;20.48;72.53;100351.63;5083821;28;20148;-62
2021/10/02 10:55:16;;;;;;;4.70;1.45;;;;;;;20.63;72.48;100355.81;5096947;28;20127;-62
2021/10/02 10:57:45;;;;;;;4.97;1.58;;;;;;;20.81;72.43;100351.53;5096879;28;20127;-62
2021/10/02 11:00:17;;;;;;;6.88;2.05;;;;;;;20.96;72.24;100342.31;5100968;28;20051;-62
2021/10/02 11:02:51;;;;;;;3.63;1.50;;;;;;;21.13;71.79;100348.91;5099410;28;20073;-62
2021/10/02 11:05:37;;;;;;;1.52;1.20;;;;;;;21.26;71.62;100340.03;5106397;28;20103;-63
2021/10/02 11:08:08;;;;;;;4.40;1.83;;;;;;;21.47;70.81;100350.41;5096031;28;20050;-61
2021/10/02 11:10:44;;;;;;;7.28;1.92;;;;;;;21.49;70.97;100348.88;5099997;28;20193;-61
2021/10/02 11:13:14;;;;;;;3.42;1.10;;;;;;;21.41;71.09;100335.66;5090192;28;20056;-62
2021/10/02 11:15:42;;;;;;;6.75;1.33;;;;;;;21.23;71.35;100322.88;5097227;28;20131;-62
2021/10/02 11:18:42;;;;;;;2.47;1.02;;;;;;;21.30;71.15;100337.31;5105323;28;20458;-61
2021/10/02 11:21:13;;;;;;;3.13;1.52;;;;;;;21.15;71.60;100340.88;5100372;28;20052;-62
2021/10/02 11:23:40;;;;;;;;;;;;;;;20.98;72.22;100339.13;5098167;28;20138;-61
2021/10/02 11:26:20;;;;;;;5.15;1.98;;;;;;;20.92;72.01;100334.84;5098992;28;19954;-61
2021/10/02 11:28:52;;;;;;;6.43;2.00;;;;;;;20.90;72.38;100325.88;5086280;27;20126;-61
2021/10/02 11:31:21;;;;;;;3.85;1.70;;;;;;;20.91;72.24;100327.53;5110711;28;20127;-60
2021/10/02 11:33:49;;;;;;;5.07;2.20;;;;;;;20.82;72.65;100331.34;5101564;28;20105;-61
2021/10/02 11:36:28;;;;;;;5.43;2.30;;;;;;;20.88;72.80;100329.06;5105494;28;20826;-61
2021/10/02 11:39:10;;;;;;;4.38;2.35;;;;;;;20.90;72.67;100340.09;5108465;27;20130;-62
2021/10/02 11:41:38;;;;;;;4.85;1.73;;;;;;;20.88;72.71;100340.41;5102818;28;20498;-63
2021/10/02 11:44:05;;;;;;;4.97;2.00;;;;;;;21.04;72.50;100340.53;5105230;28;20427;-61
2021/10/02 11:46:32;;;;;;;3.33;1.40;;;;;;;21.00;72.64;100342.44;5092856;28;20213;-61
2021/10/02 11:49:16;;;;;;;3.42;2.22;;;;;;;20.90;72.70;100329.56;5104218;28;20048;-66
2021/10/02 11:52:12;;;;;;;6.00;1.83;;;;;;;20.94;72.71;100338.19;5101721;27;20046;-63
2021/10/02 11:54:40;;;;;;;7.57;2.00;;;;;;;20.88;72.60;100326.22;5108654;28;20067;-61
2021/10/02 11:57:14;;;;;;;7.03;1.80;;;;;;;20.69;72.92;100320.34;5105254;28;20082;-66
2021/10/02 11:59:45;;;;;;;4.45;1.98;;;;;;;20.79;73.17;100334.88;5101402;27;20138;-67
2021/10/02 12:02:14;;;;;;;3.17;1.70;;;;;;;20.74;73.28;100323.75;5095650;27;20459;-67
2021/10/02 12:04:41;;;;;;;4.18;2.05;;;;;;;20.71;73.13;100337.81;5102207;28;20070;-77
2021/10/02 12:07:08;;;;;;;4.90;2.38;;;;;;;20.47;73.40;100313.91;5099039;28;20455;-64
2021/10/02 12:09:35;;;;;;;3.63;2.10;;;;;;;20.46;73.57;100322.78;5103163;28;20122;-65
2021/10/02 12:12:02;;;;;;;4.38;2.55;;;;;;;20.45;73.63;100333.28;5106464;27;20138;-69
2021/10/02 12:14:30;;;;;;;5.68;2.67;;;;;;;20.52;73.70;100344.91;5083291;28;20067;-68
2021/10/02 12:17:02;;;;;;;4.43;2.60;;;;;;;20.38;73.75;100327.38;5102438;27;20074;-69
2021/10/02 12:19:31;;;;;;;5.95;2.92;;;;;;;20.30;74.31;100319.78;5097243;28;20130;-73
2021/10/02 12:22:02;;;;;;;4.43;2.10;;;;;;;20.27;74.40;100332.69;5110756;28;20080;-73
2021/10/02 12:24:33;;;;;;;5.60;1.98;;;;;;;20.19;74.49;100315.75;5104119;28;20048;-79